sensor_id;sensor_type;location;lat;lon;timestamp;pressure;altitude;pressure_sealevel;temperature
20092;BMP180;10205;49.678;6.560;2022-09-09T00:02:20;99332.00;;;22.00
20092;BMP180;10205;49.678;6.560;2022-09-09T00:04:58;99343.00;;;22.00
20092;BMP180;10205;49.678;6.560;2022-09-09T00:07:40;99333.00;;;21.90
20092;BMP180;10205;49.678;6.560;2022-09-09T00:10:25;99320.00;;;22.00
20092;BMP180;10205;49.678;6.560;2022-09-09T00:13:05;99323.00;;;21.90
20092;BMP180;10205;49.678;6.560;2022-09-09T00:15:40;99330.00;;;21.90
20092;BMP180;10205;49.678;6.560;2022-09-09T00:18:23;99330.00;;;21.90
20092;BMP180;10205;49.678;6.560;2022-09-09T00:20:58;99334.00;;;21.90
20092;BMP180;10205;49.678;6.560;2022-09-09T00:23:31;99354.00;;;21.80
20092;BMP180;10205;49.678;6.560;2022-09-09T00:26:09;99334.00;;;21.80
20092;BMP180;10205;49.678;6.560;2022-09-09T00:28:44;99340.00;;;21.80
20092;BMP180;10205;49.678;6.560;2022-09-09T00:31:18;99334.00;;;21.70
20092;BMP180;10205;49.678;6.560;2022-09-09T00:33:49;99334.00;;;21.70
20092;BMP180;10205;49.678;6.560;2022-09-09T00:36:21;99330.00;;;21.70
20092;BMP180;10205;49.678;6.560;2022-09-09T00:38:56;99337.00;;;21.70
20092;BMP180;10205;49.678;6.560;2022-09-09T00:41:40;99340.00;;;21.60
20092;BMP180;10205;49.678;6.560;2022-09-09T00:44:27;99347.00;;;21.60
20092;BMP180;10205;49.678;6.560;2022-09-09T00:47:12;99342.00;;;21.60
20092;BMP180;10205;49.678;6.560;2022-09-09T00:49:59;99342.00;;;21.60
20092;BMP180;10205;49.678;6.560;2022-09-09T00:52:37;99348.00;;;21.50
20092;BMP180;10205;49.678;6.560;2022-09-09T00:55:16;99358.00;;;21.50
20092;BMP180;10205;49.678;6.560;2022-09-09T00:57:48;99357.00;;;21.50
20092;BMP180;10205;49.678;6.560;2022-09-09T01:00:22;99359.00;;;21.50
20092;BMP180;10205;49.678;6.560;2022-09-09T01:03:07;99364.00;;;21.50
20092;BMP180;10205;49.678;6.560;2022-09-09T01:05:46;99364.00;;;21.40
20092;BMP180;10205;49.678;6.560;2022-09-09T01:08:43;99368.00;;;21.40
20092;BMP180;10205;49.678;6.560;2022-09-09T01:11:22;99357.00;;;21.40
20092;BMP180;10205;49.678;6.560;2022-09-09T01:14:02;99364.00;;;21.40
20092;BMP180;10205;49.678;6.560;2022-09-09T01:16:32;99369.00;;;21.30
20092;BMP180;10205;49.678;6.560;2022-09-09T01:19:01;99365.00;;;21.30
20092;BMP180;10205;49.678;6.560;2022-09-09T01:21:42;99353.00;;;21.30
20092;BMP180;10205;49.678;6.560;2022-09-09T01:24:25;99353.00;;;21.30
20092;BMP180;10205;49.678;6.560;2022-09-09T01:26:58;99361.00;;;21.20
20092;BMP180;10205;49.678;6.560;2022-09-09T01:29:28;99359.00;;;21.20
20092;BMP180;10205;49.678;6.560;2022-09-09T01:31:58;99360.00;;;21.20
20092;BMP180;10205;49.678;6.560;2022-09-09T01:34:30;99361.00;;;21.20
20092;BMP180;10205;49.678;6.560;2022-09-09T01:37:04;99362.00;;;21.20
20092;BMP180;10205;49.678;6.560;2022-09-09T01:39:33;99364.00;;;21.20
20092;BMP180;10205;49.678;6.560;2022-09-09T01:42:05;99364.00;;;21.20
20092;BMP180;10205;49.678;6.560;2022-09-09T01:44:34;99360.00;;;21.20
20092;BMP180;10205;49.678;6.560;2022-09-09T01:47:02;99357.00;;;21.20
20092;BMP180;10205;49.678;6.560;2022-09-09T01:49:32;99357.00;;;21.20
20092;BMP180;10205;49.678;6.560;2022-09-09T01:52:00;99357.00;;;21.10
20092;BMP180;10205;49.678;6.560;2022-09-09T01:54:31;99349.00;;;21.10
20092;BMP180;10205;49.678;6.560;2022-09-09T01:57:12;99354.00;;;21.10
20092;BMP180;10205;49.678;6.560;2022-09-09T01:59:58;99351.00;;;21.10
20092;BMP180;10205;49.678;6.560;2022-09-09T02:02:33;99345.00;;;21.10
20092;BMP180;10205;49.678;6.560;2022-09-09T02:05:15;99365.00;;;21.10
20092;BMP180;10205;49.678;6.560;2022-09-09T02:07:48;99343.00;;;21.00
20092;BMP180;10205;49.678;6.560;2022-09-09T02:10:20;99349.00;;;21.00
20092;BMP180;10205;49.678;6.560;2022-09-09T02:12:55;99345.00;;;21.00
20092;BMP180;10205;49.678;6.560;2022-09-09T02:15:32;99333.00;;;21.00
20092;BMP180;10205;49.678;6.560;2022-09-09T02:18:06;99340.00;;;21.00
20092;BMP180;10205;49.678;6.560;2022-09-09T02:20:36;99340.00;;;21.00
20092;BMP180;10205;49.678;6.560;2022-09-09T02:23:07;99326.00;;;21.00
20092;BMP180;10205;49.678;6.560;2022-09-09T02:25:37;99336.00;;;21.00
20092;BMP180;10205;49.678;6.560;2022-09-09T02:28:11;99340.00;;;21.00
20092;BMP180;10205;49.678;6.560;2022-09-09T02:30:45;99338.00;;;21.00
20092;BMP180;10205;49.678;6.560;2022-09-09T02:33:13;99338.00;;;21.00
20092;BMP180;10205;49.678;6.560;2022-09-09T02:35:43;99344.00;;;21.00
20092;BMP180;10205;49.678;6.560;2022-09-09T02:38:15;99328.00;;;21.00
20092;BMP180;10205;49.678;6.560;2022-09-09T02:40:43;99346.00;;;21.00
20092;BMP180;10205;49.678;6.560;2022-09-09T02:43:14;99343.00;;;21.00
20092;BMP180;10205;49.678;6.560;2022-09-09T02:45:51;99337.00;;;21.00
20092;BMP180;10205;49.678;6.560;2022-09-09T02:48:28;99343.00;;;21.00
20092;BMP180;10205;49.678;6.560;2022-09-09T02:51:06;99337.00;;;21.00
20092;BMP180;10205;49.678;6.560;2022-09-09T02:53:43;99350.00;;;20.90
20092;BMP180;10205;49.678;6.560;2022-09-09T02:56:18;99332.00;;;20.90
20092;BMP180;10205;49.678;6.560;2022-09-09T02:58:48;99330.00;;;20.90
20092;BMP180;10205;49.678;6.560;2022-09-09T03:01:18;99335.00;;;20.90
20092;BMP180;10205;49.678;6.560;2022-09-09T03:03:45;99327.00;;;20.90
20092;BMP180;10205;49.678;6.560;2022-09-09T03:06:12;99331.00;;;20.90
20092;BMP180;10205;49.678;6.560;2022-09-09T03:08:40;99338.00;;;20.90
20092;BMP180;10205;49.678;6.560;2022-09-09T03:11:08;99346.00;;;20.90
20092;BMP180;10205;49.678;6.560;2022-09-09T03:13:36;99343.00;;;20.90
20092;BMP180;10205;49.678;6.560;2022-09-09T03:16:05;99341.00;;;20.90
20092;BMP180;10205;49.678;6.560;2022-09-09T03:18:32;99347.00;;;20.90
20092;BMP180;10205;49.678;6.560;2022-09-09T03:21:00;99346.00;;;20.90
20092;BMP180;10205;49.678;6.560;2022-09-09T03:23:30;99341.00;;;20.90
20092;BMP180;10205;49.678;6.560;2022-09-09T03:25:57;99342.00;;;20.90
20092;BMP180;10205;49.678;6.560;2022-09-09T03:28:24;99334.00;;;20.90
20092;BMP180;10205;49.678;6.560;2022-09-09T03:30:59;99345.00;;;20.90
20092;BMP180;10205;49.678;6.560;2022-09-09T03:33:28;99337.00;;;20.90
20092;BMP180;10205;49.678;6.560;2022-09-09T03:35:57;99344.00;;;20.90
20092;BMP180;10205;49.678;6.560;2022-09-09T03:38:25;99333.00;;;20.90
20092;BMP180;10205;49.678;6.560;2022-09-09T03:40:54;99335.00;;;20.90
20092;BMP180;10205;49.678;6.560;2022-09-09T03:43:24;99340.00;;;20.90
20092;BMP180;10205;49.678;6.560;2022-09-09T03:45:52;99334.00;;;20.90
20092;BMP180;10205;49.678;6.560;2022-09-09T03:48:19;99333.00;;;20.80
20092;BMP180;10205;49.678;6.560;2022-09-09T03:50:50;99348.00;;;20.90
20092;BMP180;10205;49.678;6.560;2022-09-09T03:53:21;99344.00;;;20.80
20092;BMP180;10205;49.678;6.560;2022-09-09T03:55:52;99342.00;;;20.90
20092;BMP180;10205;49.678;6.560;2022-09-09T03:58:21;99343.00;;;20.80
20092;BMP180;10205;49.678;6.560;2022-09-09T04:00:54;99348.00;;;20.80
20092;BMP180;10205;49.678;6.560;2022-09-09T04:03:22;99337.00;;;20.80
20092;BMP180;10205;49.678;6.560;2022-09-09T04:05:52;99346.00;;;20.80
20092;BMP180;10205;49.678;6.560;2022-09-09T04:08:20;99339.00;;;20.80
20092;BMP180;10205;49.678;6.560;2022-09-09T04:10:49;99349.00;;;20.80
20092;BMP180;10205;49.678;6.560;2022-09-09T04:13:18;99341.00;;;20.80
20092;BMP180;10205;49.678;6.560;2022-09-09T04:15:51;99344.00;;;20.80
20092;BMP180;10205;49.678;6.560;2022-09-09T04:18:19;99340.00;;;20.80
20092;BMP180;10205;49.678;6.560;2022-09-09T04:20:47;99341.00;;;20.80
20092;BMP180;10205;49.678;6.560;2022-09-09T04:23:17;99346.00;;;20.80
20092;BMP180;10205;49.678;6.560;2022-09-09T04:25:47;99339.00;;;20.80
20092;BMP180;10205;49.678;6.560;2022-09-09T04:28:14;99351.00;;;20.80
20092;BMP180;10205;49.678;6.560;2022-09-09T04:30:43;99346.00;;;20.80
20092;BMP180;10205;49.678;6.560;2022-09-09T04:33:13;99346.00;;;20.80
20092;BMP180;10205;49.678;6.560;2022-09-09T04:35:45;99348.00;;;20.80
20092;BMP180;10205;49.678;6.560;2022-09-09T04:38:14;99361.00;;;20.80
20092;BMP180;10205;49.678;6.560;2022-09-09T04:40:47;99361.00;;;20.80
20092;BMP180;10205;49.678;6.560;2022-09-09T04:43:14;99341.00;;;20.80
20092;BMP180;10205;49.678;6.560;2022-09-09T04:45:42;99353.00;;;20.80
20092;BMP180;10205;49.678;6.560;2022-09-09T04:48:09;99353.00;;;20.80
20092;BMP180;10205;49.678;6.560;2022-09-09T04:50:36;99361.00;;;20.80
20092;BMP180;10205;49.678;6.560;2022-09-09T04:53:05;99367.00;;;20.80
20092;BMP180;10205;49.678;6.560;2022-09-09T04:55:33;99354.00;;;20.80
20092;BMP180;10205;49.678;6.560;2022-09-09T04:58:06;99356.00;;;20.80
20092;BMP180;10205;49.678;6.560;2022-09-09T05:00:34;99365.00;;;20.80
20092;BMP180;10205;49.678;6.560;2022-09-09T05:03:03;99365.00;;;20.80
20092;BMP180;10205;49.678;6.560;2022-09-09T05:05:32;99373.00;;;20.80
20092;BMP180;10205;49.678;6.560;2022-09-09T05:08:05;99357.00;;;20.70
20092;BMP180;10205;49.678;6.560;2022-09-09T05:10:34;99365.00;;;20.80
20092;BMP180;10205;49.678;6.560;2022-09-09T05:13:01;99374.00;;;20.70
20092;BMP180;10205;49.678;6.560;2022-09-09T05:15:30;99362.00;;;20.70
20092;BMP180;10205;49.678;6.560;2022-09-09T05:17:58;99369.00;;;20.70
20092;BMP180;10205;49.678;6.560;2022-09-09T05:20:26;99360.00;;;20.70
20092;BMP180;10205;49.678;6.560;2022-09-09T05:22:54;99373.00;;;20.70
20092;BMP180;10205;49.678;6.560;2022-09-09T05:25:22;99368.00;;;20.70
20092;BMP180;10205;49.678;6.560;2022-09-09T05:27:50;99368.00;;;20.70
20092;BMP180;10205;49.678;6.560;2022-09-09T05:30:17;99373.00;;;20.70
20092;BMP180;10205;49.678;6.560;2022-09-09T05:32:46;99367.00;;;20.70
20092;BMP180;10205;49.678;6.560;2022-09-09T05:35:14;99364.00;;;20.60
20092;BMP180;10205;49.678;6.560;2022-09-09T05:37:42;99364.00;;;20.60
20092;BMP180;10205;49.678;6.560;2022-09-09T05:40:09;99367.00;;;20.60
20092;BMP180;10205;49.678;6.560;2022-09-09T05:42:38;99372.00;;;20.60
20092;BMP180;10205;49.678;6.560;2022-09-09T05:45:06;99373.00;;;20.60
20092;BMP180;10205;49.678;6.560;2022-09-09T05:47:35;99364.00;;;20.60
20092;BMP180;10205;49.678;6.560;2022-09-09T05:50:06;99369.00;;;20.60
20092;BMP180;10205;49.678;6.560;2022-09-09T05:52:33;99380.00;;;20.60
20092;BMP180;10205;49.678;6.560;2022-09-09T05:55:01;99381.00;;;20.60
20092;BMP180;10205;49.678;6.560;2022-09-09T05:57:30;99382.00;;;20.60
20092;BMP180;10205;49.678;6.560;2022-09-09T06:00:00;99380.00;;;20.60
20092;BMP180;10205;49.678;6.560;2022-09-09T06:02:27;99384.00;;;20.60
20092;BMP180;10205;49.678;6.560;2022-09-09T06:04:54;99387.00;;;20.60
20092;BMP180;10205;49.678;6.560;2022-09-09T06:07:26;99385.00;;;20.60
20092;BMP180;10205;49.678;6.560;2022-09-09T06:09:53;99376.00;;;20.60
20092;BMP180;10205;49.678;6.560;2022-09-09T06:12:20;99387.00;;;20.60
20092;BMP180;10205;49.678;6.560;2022-09-09T06:14:47;99387.00;;;20.60
20092;BMP180;10205;49.678;6.560;2022-09-09T06:17:16;99387.00;;;20.60
20092;BMP180;10205;49.678;6.560;2022-09-09T06:19:44;99388.00;;;20.60
20092;BMP180;10205;49.678;6.560;2022-09-09T06:22:11;99381.00;;;20.60
20092;BMP180;10205;49.678;6.560;2022-09-09T06:24:40;99381.00;;;20.60
20092;BMP180;10205;49.678;6.560;2022-09-09T06:27:07;99388.00;;;20.60
20092;BMP180;10205;49.678;6.560;2022-09-09T06:29:34;99392.00;;;20.60
20092;BMP180;10205;49.678;6.560;2022-09-09T06:32:02;99387.00;;;20.60
20092;BMP180;10205;49.678;6.560;2022-09-09T06:34:30;99393.00;;;20.60
20092;BMP180;10205;49.678;6.560;2022-09-09T06:37:00;99391.00;;;20.60
20092;BMP180;10205;49.678;6.560;2022-09-09T06:39:27;99388.00;;;20.60
20092;BMP180;10205;49.678;6.560;2022-09-09T06:41:56;99393.00;;;20.60
20092;BMP180;10205;49.678;6.560;2022-09-09T06:44:24;99387.00;;;20.60
20092;BMP180;10205;49.678;6.560;2022-09-09T06:46:52;99395.00;;;20.60
20092;BMP180;10205;49.678;6.560;2022-09-09T06:49:19;99405.00;;;20.60
20092;BMP180;10205;49.678;6.560;2022-09-09T06:51:46;99400.00;;;20.60
20092;BMP180;10205;49.678;6.560;2022-09-09T06:54:15;99380.00;;;20.60
20092;BMP180;10205;49.678;6.560;2022-09-09T06:56:42;99379.00;;;20.60
20092;BMP180;10205;49.678;6.560;2022-09-09T06:59:12;99386.00;;;20.60
20092;BMP180;10205;49.678;6.560;2022-09-09T07:01:41;99388.00;;;20.60
20092;BMP180;10205;49.678;6.560;2022-09-09T07:04:10;99393.00;;;20.60
20092;BMP180;10205;49.678;6.560;2022-09-09T07:06:40;99402.00;;;20.60
20092;BMP180;10205;49.678;6.560;2022-09-09T07:09:11;99405.00;;;20.70
20092;BMP180;10205;49.678;6.560;2022-09-09T07:11:42;99402.00;;;20.70
20092;BMP180;10205;49.678;6.560;2022-09-09T07:14:10;99411.00;;;20.70
20092;BMP180;10205;49.678;6.560;2022-09-09T07:16:40;99396.00;;;20.70
20092;BMP180;10205;49.678;6.560;2022-09-09T07:19:08;99397.00;;;20.70
20092;BMP180;10205;49.678;6.560;2022-09-09T07:21:35;99407.00;;;20.70
20092;BMP180;10205;49.678;6.560;2022-09-09T07:24:03;99413.00;;;20.70
20092;BMP180;10205;49.678;6.560;2022-09-09T07:26:33;99409.00;;;20.70
20092;BMP180;10205;49.678;6.560;2022-09-09T07:29:01;99414.00;;;20.70
20092;BMP180;10205;49.678;6.560;2022-09-09T07:31:31;99417.00;;;20.70
20092;BMP180;10205;49.678;6.560;2022-09-09T07:34:01;99408.00;;;20.70
20092;BMP180;10205;49.678;6.560;2022-09-09T07:36:30;99415.00;;;20.70
20092;BMP180;10205;49.678;6.560;2022-09-09T07:39:01;99411.00;;;20.70
20092;BMP180;10205;49.678;6.560;2022-09-09T07:41:31;99414.00;;;20.70
20092;BMP180;10205;49.678;6.560;2022-09-09T07:44:04;99416.00;;;20.80
20092;BMP180;10205;49.678;6.560;2022-09-09T07:46:32;99415.00;;;20.80
20092;BMP180;10205;49.678;6.560;2022-09-09T07:49:01;99412.00;;;20.80
20092;BMP180;10205;49.678;6.560;2022-09-09T07:51:31;99412.00;;;20.80
20092;BMP180;10205;49.678;6.560;2022-09-09T07:54:00;99427.00;;;20.80
20092;BMP180;10205;49.678;6.560;2022-09-09T07:56:30;99417.00;;;20.80
20092;BMP180;10205;49.678;6.560;2022-09-09T07:58:58;99422.00;;;20.80
20092;BMP180;10205;49.678;6.560;2022-09-09T08:01:30;99417.00;;;20.80
20092;BMP180;10205;49.678;6.560;2022-09-09T08:04:01;99408.00;;;20.80
20092;BMP180;10205;49.678;6.560;2022-09-09T08:06:34;99414.00;;;20.80
20092;BMP180;10205;49.678;6.560;2022-09-09T08:09:02;99413.00;;;20.80
20092;BMP180;10205;49.678;6.560;2022-09-09T08:11:30;99398.00;;;20.80
20092;BMP180;10205;49.678;6.560;2022-09-09T08:13:58;99404.00;;;20.90
20092;BMP180;10205;49.678;6.560;2022-09-09T08:16:28;99412.00;;;20.90
20092;BMP180;10205;49.678;6.560;2022-09-09T08:18:57;99394.00;;;20.90
20092;BMP180;10205;49.678;6.560;2022-09-09T08:21:29;99403.00;;;20.90
20092;BMP180;10205;49.678;6.560;2022-09-09T08:23:59;99407.00;;;20.90
20092;BMP180;10205;49.678;6.560;2022-09-09T08:26:29;99415.00;;;20.90
20092;BMP180;10205;49.678;6.560;2022-09-09T08:28:59;99407.00;;;20.90
20092;BMP180;10205;49.678;6.560;2022-09-09T08:31:29;99409.00;;;21.00
20092;BMP180;10205;49.678;6.560;2022-09-09T08:33:58;99408.00;;;21.00
20092;BMP180;10205;49.678;6.560;2022-09-09T08:36:30;99406.00;;;21.00
20092;BMP180;10205;49.678;6.560;2022-09-09T08:39:00;99413.00;;;21.00
20092;BMP180;10205;49.678;6.560;2022-09-09T08:41:50;99406.00;;;21.00
20092;BMP180;10205;49.678;6.560;2022-09-09T08:44:32;99406.00;;;21.00
20092;BMP180;10205;49.678;6.560;2022-09-09T08:47:17;99412.00;;;21.00
20092;BMP180;10205;49.678;6.560;2022-09-09T08:50:12;99422.00;;;21.00
20092;BMP180;10205;49.678;6.560;2022-09-09T08:52:52;99402.00;;;21.00
20092;BMP180;10205;49.678;6.560;2022-09-09T08:55:29;99408.00;;;21.00
20092;BMP180;10205;49.678;6.560;2022-09-09T08:58:11;99412.00;;;21.00
20092;BMP180;10205;49.678;6.560;2022-09-09T09:01:02;99416.00;;;21.00
20092;BMP180;10205;49.678;6.560;2022-09-09T09:03:41;99432.00;;;21.00
20092;BMP180;10205;49.678;6.560;2022-09-09T09:06:26;99406.00;;;21.10
20092;BMP180;10205;49.678;6.560;2022-09-09T09:09:06;99423.00;;;21.10
20092;BMP180;10205;49.678;6.560;2022-09-09T09:11:37;99414.00;;;21.20
20092;BMP180;10205;49.678;6.560;2022-09-09T09:14:12;99416.00;;;21.20
20092;BMP180;10205;49.678;6.560;2022-09-09T09:16:52;99412.00;;;21.30
20092;BMP180;10205;49.678;6.560;2022-09-09T09:19:21;99415.00;;;21.30
20092;BMP180;10205;49.678;6.560;2022-09-09T09:21:58;99407.00;;;21.40
20092;BMP180;10205;49.678;6.560;2022-09-09T09:24:39;99413.00;;;21.50
20092;BMP180;10205;49.678;6.560;2022-09-09T09:27:13;99410.00;;;21.50
20092;BMP180;10205;49.678;6.560;2022-09-09T09:29:43;99413.00;;;21.60
20092;BMP180;10205;49.678;6.560;2022-09-09T09:32:16;99423.00;;;21.70
20092;BMP180;10205;49.678;6.560;2022-09-09T09:34:49;99424.00;;;21.70
20092;BMP180;10205;49.678;6.560;2022-09-09T09:37:26;99428.00;;;21.80
20092;BMP180;10205;49.678;6.560;2022-09-09T09:39:56;99427.00;;;21.80
20092;BMP180;10205;49.678;6.560;2022-09-09T09:42:24;99418.00;;;21.90
20092;BMP180;10205;49.678;6.560;2022-09-09T09:44:52;99412.00;;;21.90
20092;BMP180;10205;49.678;6.560;2022-09-09T09:47:21;99408.00;;;21.90
20092;BMP180;10205;49.678;6.560;2022-09-09T09:49:52;99415.00;;;22.00
20092;BMP180;10205;49.678;6.560;2022-09-09T09:52:24;99423.00;;;22.00
20092;BMP180;10205;49.678;6.560;2022-09-09T09:54:59;99412.00;;;22.00
20092;BMP180;10205;49.678;6.560;2022-09-09T09:57:31;99414.00;;;22.00
20092;BMP180;10205;49.678;6.560;2022-09-09T10:00:06;99411.00;;;22.10
20092;BMP180;10205;49.678;6.560;2022-09-09T10:02:42;99398.00;;;22.10
20092;BMP180;10205;49.678;6.560;2022-09-09T10:05:15;99405.00;;;22.20
20092;BMP180;10205;49.678;6.560;2022-09-09T10:07:44;99406.00;;;22.20
20092;BMP180;10205;49.678;6.560;2022-09-09T10:10:21;99415.00;;;22.30
20092;BMP180;10205;49.678;6.560;2022-09-09T10:13:00;99417.00;;;22.30
20092;BMP180;10205;49.678;6.560;2022-09-09T10:15:39;99410.00;;;22.30
20092;BMP180;10205;49.678;6.560;2022-09-09T10:18:35;99400.00;;;22.30
20092;BMP180;10205;49.678;6.560;2022-09-09T10:21:15;99414.00;;;22.30
20092;BMP180;10205;49.678;6.560;2022-09-09T10:24:12;99411.00;;;22.40
20092;BMP180;10205;49.678;6.560;2022-09-09T10:26:53;99406.00;;;22.40
20092;BMP180;10205;49.678;6.560;2022-09-09T10:29:47;99396.00;;;22.50
20092;BMP180;10205;49.678;6.560;2022-09-09T10:32:44;99394.00;;;22.50
20092;BMP180;10205;49.678;6.560;2022-09-09T10:35:27;99394.00;;;22.60
20092;BMP180;10205;49.678;6.560;2022-09-09T10:38:17;99375.00;;;22.60
20092;BMP180;10205;49.678;6.560;2022-09-09T10:41:15;99392.00;;;22.70
20092;BMP180;10205;49.678;6.560;2022-09-09T10:44:17;99382.00;;;22.70
20092;BMP180;10205;49.678;6.560;2022-09-09T10:47:03;99384.00;;;22.80
20092;BMP180;10205;49.678;6.560;2022-09-09T10:50:00;99389.00;;;22.90
20092;BMP180;10205;49.678;6.560;2022-09-09T10:52:43;99380.00;;;22.90
20092;BMP180;10205;49.678;6.560;2022-09-09T10:55:18;99382.00;;;23.00
20092;BMP180;10205;49.678;6.560;2022-09-09T10:57:48;99375.00;;;23.10
20092;BMP180;10205;49.678;6.560;2022-09-09T11:00:21;99383.00;;;23.10
20092;BMP180;10205;49.678;6.560;2022-09-09T11:02:54;99380.00;;;23.20
20092;BMP180;10205;49.678;6.560;2022-09-09T11:05:29;99383.00;;;23.20
20092;BMP180;10205;49.678;6.560;2022-09-09T11:08:03;99375.00;;;23.30
20092;BMP180;10205;49.678;6.560;2022-09-09T11:10:40;99376.00;;;23.30
20092;BMP180;10205;49.678;6.560;2022-09-09T11:13:17;99380.00;;;23.40
20092;BMP180;10205;49.678;6.560;2022-09-09T11:15:53;99377.00;;;23.40
20092;BMP180;10205;49.678;6.560;2022-09-09T11:18:23;99375.00;;;23.50
20092;BMP180;10205;49.678;6.560;2022-09-09T11:20:53;99380.00;;;23.50
20092;BMP180;10205;49.678;6.560;2022-09-09T11:23:30;99361.00;;;23.60
20092;BMP180;10205;49.678;6.560;2022-09-09T11:26:06;99369.00;;;23.60
20092;BMP180;10205;49.678;6.560;2022-09-09T11:28:52;99377.00;;;23.60
20092;BMP180;10205;49.678;6.560;2022-09-09T11:31:44;99387.00;;;23.60
20092;BMP180;10205;49.678;6.560;2022-09-09T11:34:32;99379.00;;;23.60
20092;BMP180;10205;49.678;6.560;2022-09-09T11:37:25;99390.00;;;23.60
20092;BMP180;10205;49.678;6.560;2022-09-09T11:40:21;99402.00;;;23.70
20092;BMP180;10205;49.678;6.560;2022-09-09T11:43:03;99394.00;;;23.70
20092;BMP180;10205;49.678;6.560;2022-09-09T11:45:33;99392.00;;;23.70
20092;BMP180;10205;49.678;6.560;2022-09-09T11:48:04;99395.00;;;23.70
20092;BMP180;10205;49.678;6.560;2022-09-09T11:50:35;99382.00;;;23.70
20092;BMP180;10205;49.678;6.560;2022-09-09T11:53:20;99381.00;;;23.70
20092;BMP180;10205;49.678;6.560;2022-09-09T11:56:03;99385.00;;;23.80
20092;BMP180;10205;49.678;6.560;2022-09-09T11:58:38;99388.00;;;23.80
20092;BMP180;10205;49.678;6.560;2022-09-09T12:01:34;99380.00;;;23.80
20092;BMP180;10205;49.678;6.560;2022-09-09T12:04:32;99373.00;;;23.80
20092;BMP180;10205;49.678;6.560;2022-09-09T12:07:04;99380.00;;;23.80
20092;BMP180;10205;49.678;6.560;2022-09-09T12:09:48;99375.00;;;23.80
20092;BMP180;10205;49.678;6.560;2022-09-09T12:12:30;99372.00;;;23.80
20092;BMP180;10205;49.678;6.560;2022-09-09T12:15:18;99379.00;;;23.80
20092;BMP180;10205;49.678;6.560;2022-09-09T12:17:49;99374.00;;;23.90
20092;BMP180;10205;49.678;6.560;2022-09-09T12:20:21;99376.00;;;23.90
20092;BMP180;10205;49.678;6.560;2022-09-09T12:23:22;99373.00;;;23.90
20092;BMP180;10205;49.678;6.560;2022-09-09T12:26:09;99373.00;;;24.00
20092;BMP180;10205;49.678;6.560;2022-09-09T12:28:54;99371.00;;;24.00
20092;BMP180;10205;49.678;6.560;2022-09-09T12:31:28;99377.00;;;24.10
20092;BMP180;10205;49.678;6.560;2022-09-09T12:34:11;99364.00;;;24.10
20092;BMP180;10205;49.678;6.560;2022-09-09T12:36:50;99359.00;;;24.10
20092;BMP180;10205;49.678;6.560;2022-09-09T12:39:28;99367.00;;;24.20
20092;BMP180;10205;49.678;6.560;2022-09-09T12:41:57;99353.00;;;24.20
20092;BMP180;10205;49.678;6.560;2022-09-09T12:44:25;99358.00;;;24.30
20092;BMP180;10205;49.678;6.560;2022-09-09T12:47:02;99358.00;;;24.40
20092;BMP180;10205;49.678;6.560;2022-09-09T12:49:34;99350.00;;;24.40
20092;BMP180;10205;49.678;6.560;2022-09-09T12:52:08;99342.00;;;24.50
20092;BMP180;10205;49.678;6.560;2022-09-09T12:54:45;99338.00;;;24.60
20092;BMP180;10205;49.678;6.560;2022-09-09T12:57:31;99336.00;;;24.60
20092;BMP180;10205;49.678;6.560;2022-09-09T13:00:13;99336.00;;;24.70
20092;BMP180;10205;49.678;6.560;2022-09-09T13:02:50;99335.00;;;24.70
20092;BMP180;10205;49.678;6.560;2022-09-09T13:05:22;99329.00;;;24.80
20092;BMP180;10205;49.678;6.560;2022-09-09T13:07:52;99328.00;;;24.80
20092;BMP180;10205;49.678;6.560;2022-09-09T13:10:28;99326.00;;;24.90
20092;BMP180;10205;49.678;6.560;2022-09-09T13:12:56;99326.00;;;24.90
20092;BMP180;10205;49.678;6.560;2022-09-09T13:15:28;99324.00;;;24.90
20092;BMP180;10205;49.678;6.560;2022-09-09T13:18:00;99315.00;;;25.00
20092;BMP180;10205;49.678;6.560;2022-09-09T13:20:29;99319.00;;;25.00
20092;BMP180;10205;49.678;6.560;2022-09-09T13:22:58;99323.00;;;25.10
20092;BMP180;10205;49.678;6.560;2022-09-09T13:25:27;99319.00;;;25.10
20092;BMP180;10205;49.678;6.560;2022-09-09T13:28:00;99314.00;;;25.20
20092;BMP180;10205;49.678;6.560;2022-09-09T13:30:30;99324.00;;;25.20
20092;BMP180;10205;49.678;6.560;2022-09-09T13:33:21;99305.00;;;25.20
20092;BMP180;10205;49.678;6.560;2022-09-09T13:35:53;99325.00;;;25.20
20092;BMP180;10205;49.678;6.560;2022-09-09T13:38:27;99335.00;;;25.30
20092;BMP180;10205;49.678;6.560;2022-09-09T13:40:58;99336.00;;;25.30
20092;BMP180;10205;49.678;6.560;2022-09-09T13:43:30;99332.00;;;25.30
20092;BMP180;10205;49.678;6.560;2022-09-09T13:46:01;99343.00;;;25.30
20092;BMP180;10205;49.678;6.560;2022-09-09T13:48:29;99341.00;;;25.30
20092;BMP180;10205;49.678;6.560;2022-09-09T13:51:01;99352.00;;;25.30
20092;BMP180;10205;49.678;6.560;2022-09-09T13:53:30;99355.00;;;25.30
20092;BMP180;10205;49.678;6.560;2022-09-09T13:55:59;99401.00;;;25.30
20092;BMP180;10205;49.678;6.560;2022-09-09T13:58:27;99414.00;;;25.30
20092;BMP180;10205;49.678;6.560;2022-09-09T14:00:54;99424.00;;;25.30
20092;BMP180;10205;49.678;6.560;2022-09-09T14:03:23;99424.00;;;25.20
20092;BMP180;10205;49.678;6.560;2022-09-09T14:05:50;99418.00;;;25.00
20092;BMP180;10205;49.678;6.560;2022-09-09T14:08:25;99424.00;;;24.90
20092;BMP180;10205;49.678;6.560;2022-09-09T14:10:55;99432.00;;;24.80
20092;BMP180;10205;49.678;6.560;2022-09-09T14:13:25;99434.00;;;24.80
20092;BMP180;10205;49.678;6.560;2022-09-09T14:15:52;99434.00;;;24.70
20092;BMP180;10205;49.678;6.560;2022-09-09T14:18:20;99429.00;;;24.70
20092;BMP180;10205;49.678;6.560;2022-09-09T14:20:48;99430.00;;;24.70
20092;BMP180;10205;49.678;6.560;2022-09-09T14:23:16;99420.00;;;24.70
20092;BMP180;10205;49.678;6.560;2022-09-09T14:25:44;99423.00;;;24.70
20092;BMP180;10205;49.678;6.560;2022-09-09T14:28:14;99411.00;;;24.70
20092;BMP180;10205;49.678;6.560;2022-09-09T14:30:43;99404.00;;;24.70
20092;BMP180;10205;49.678;6.560;2022-09-09T14:33:15;99413.00;;;24.70
20092;BMP180;10205;49.678;6.560;2022-09-09T14:35:43;99400.00;;;24.70
20092;BMP180;10205;49.678;6.560;2022-09-09T14:38:10;99405.00;;;24.70
20092;BMP180;10205;49.678;6.560;2022-09-09T14:40:38;99415.00;;;24.70
20092;BMP180;10205;49.678;6.560;2022-09-09T14:43:05;99414.00;;;24.70
20092;BMP180;10205;49.678;6.560;2022-09-09T14:45:36;99409.00;;;24.70